KPHN

St Clair County International Airport

Port Huron, Michigan, USA
METAR KPHN 150055Z AUTO 00000KT 10SM CLR 20/18 A2992 RMK AO2
Observed Flight Rules
Aug-15 @ 00:55 UTC (9 minutes ago) Visual Flight Rules
Visibility Clouds
10 miles
  • Clear skies
Temperatures Readings
Current 20°C / 68°F
Dewpoint 18°C / 64°F
Humidity 88%
Altimeter 29.92" Hg
Pressure 1013 hPa
Elevation 198
METAR KPHN 150055Z AUTO 00000KT 10SM CLR 20/18 A2992 RMK AO2
Observed Flight Rules
Aug-15 @ 00:55 UTC
(9 minutes ago)
VFR
Clouds
  • Clear skies
Temperature Dewpoint
20°C / 68°F 18°C / 64°F
Humidity Altimeter Pressure
88% 29.92" Hg 1013 hPa